createdAt,value
2023-05-18T00:00:36.343Z,98
2023-05-18T00:01:43.424Z,98
2023-05-18T00:02:50.604Z,98
2023-05-18T00:03:57.782Z,98
2023-05-18T00:05:04.871Z,100
2023-05-18T00:06:11.355Z,100
2023-05-18T00:07:18.473Z,100
2023-05-18T00:08:25.541Z,100
2023-05-18T00:09:32.663Z,100
2023-05-18T00:10:39.763Z,100
2023-05-18T00:11:46.490Z,100
2023-05-18T00:12:53.455Z,100
2023-05-18T00:14:00.553Z,100
2023-05-18T00:15:07.684Z,100
2023-05-18T00:16:14.779Z,100
2023-05-18T00:17:21.378Z,100
2023-05-18T00:18:28.691Z,100
2023-05-18T00:19:35.581Z,100
2023-05-18T00:20:42.664Z,100
2023-05-18T00:21:49.812Z,100
2023-05-18T00:22:56.472Z,100
2023-05-18T00:24:03.448Z,100
2023-05-18T00:25:10.573Z,100
2023-05-18T00:26:17.694Z,100
2023-05-18T00:27:24.900Z,100
2023-05-18T00:28:31.473Z,100
2023-05-18T00:30:45.617Z,100
2023-05-18T00:31:52.758Z,100
2023-05-18T00:32:59.344Z,100
2023-05-18T00:34:06.447Z,100
2023-05-18T00:35:13.495Z,100
2023-05-18T00:36:20.578Z,100
2023-05-18T00:38:34.263Z,100
2023-05-18T00:39:41.396Z,100
2023-05-18T00:40:48.539Z,100
2023-05-18T00:41:55.618Z,100
2023-05-18T00:43:02.766Z,100
2023-05-18T00:44:09.309Z,100
2023-05-18T00:45:16.470Z,100
2023-05-18T00:46:23.558Z,100
2023-05-18T00:47:30.674Z,100
2023-05-18T00:48:37.750Z,100
2023-05-18T00:49:44.320Z,100
2023-05-18T00:50:51.380Z,100
2023-05-18T00:51:58.512Z,100
2023-05-18T00:53:05.617Z,100
2023-05-18T00:54:12.932Z,100
2023-05-18T00:55:19.345Z,100
2023-05-18T00:56:26.471Z,100
2023-05-18T00:57:33.511Z,100
2023-05-18T00:58:40.611Z,100
2023-05-18T00:59:47.715Z,100
2023-05-18T01:00:54.362Z,100
2023-05-18T01:02:01.433Z,100
2023-05-18T01:03:08.678Z,100
2023-05-18T01:04:15.689Z,100
2023-05-18T01:05:22.773Z,100
2023-05-18T01:06:29.866Z,100
2023-05-18T01:07:36.471Z,100
2023-05-18T01:08:43.517Z,100
2023-05-18T01:09:50.648Z,100
2023-05-18T01:10:57.815Z,100
2023-05-18T01:12:04.287Z,100
2023-05-18T01:13:11.465Z,100
2023-05-18T01:14:18.577Z,99
2023-05-18T01:15:25.660Z,99
2023-05-18T01:16:32.753Z,99
2023-05-18T01:17:39.384Z,99
2023-05-18T01:18:46.538Z,99
2023-05-18T01:19:53.543Z,99
2023-05-18T01:21:00.670Z,99
2023-05-18T01:22:07.794Z,99
2023-05-18T01:23:14.329Z,99
2023-05-18T01:24:21.420Z,99
2023-05-18T01:25:28.773Z,99
2023-05-18T01:26:35.668Z,99
2023-05-18T01:27:42.756Z,99
2023-05-18T01:28:49.399Z,99
2023-05-18T01:29:56.470Z,99
2023-05-18T01:31:03.679Z,99
2023-05-18T01:32:10.651Z,99
2023-05-18T01:33:17.782Z,99
2023-05-18T01:34:24.429Z,99
2023-05-18T01:35:31.754Z,98
2023-05-18T01:36:38.575Z,98
2023-05-18T01:37:45.675Z,98
2023-05-18T01:38:52.744Z,98
2023-05-18T01:39:59.383Z,98
2023-05-18T01:42:13.649Z,98
2023-05-18T01:43:20.674Z,97
2023-05-18T01:44:27.825Z,97
2023-05-18T01:45:34.396Z,97
2023-05-18T01:46:41.521Z,97
2023-05-18T01:47:48.658Z,97
2023-05-18T01:48:55.773Z,97
2023-05-18T01:50:02.801Z,97
2023-05-18T01:51:09.408Z,96
2023-05-18T01:52:16.505Z,96
2023-05-18T01:53:23.628Z,96
2023-05-18T01:54:30.736Z,96
2023-05-18T01:55:37.333Z,96
2023-05-18T01:56:44.400Z,96
2023-05-18T01:57:51.472Z,96
2023-05-18T01:58:58.672Z,96
2023-05-18T02:00:05.690Z,95
2023-05-18T02:01:12.277Z,96
2023-05-18T02:02:19.538Z,96
2023-05-18T02:03:26.598Z,95
2023-05-18T02:04:33.618Z,95
2023-05-18T02:05:40.691Z,96
2023-05-18T02:06:47.355Z,95
2023-05-18T02:07:54.477Z,95
2023-05-18T02:09:01.537Z,95
2023-05-18T02:10:08.620Z,95
2023-05-18T02:11:15.748Z,95
2023-05-18T02:12:22.315Z,95
2023-05-18T02:13:29.432Z,95
2023-05-18T02:14:36.559Z,95
2023-05-18T02:15:43.646Z,95
2023-05-18T02:16:50.711Z,94
2023-05-18T02:17:57.378Z,95
2023-05-18T02:19:04.455Z,94
2023-05-18T02:20:11.512Z,94
2023-05-18T02:21:18.693Z,94
2023-05-18T02:22:25.763Z,94
2023-05-18T02:23:32.285Z,94
2023-05-18T02:24:39.440Z,94
2023-05-18T02:25:46.582Z,94
2023-05-18T02:26:53.604Z,94
2023-05-18T02:28:00.721Z,94
2023-05-18T02:29:07.347Z,94
2023-05-18T02:30:16.137Z,94
2023-05-18T02:31:21.529Z,94
2023-05-18T02:32:28.702Z,94
2023-05-18T02:33:35.728Z,94
2023-05-18T02:34:42.883Z,94
2023-05-18T02:35:49.473Z,94
2023-05-18T02:36:56.586Z,94
2023-05-18T02:38:03.676Z,94
2023-05-18T02:39:10.758Z,94
2023-05-18T02:40:17.361Z,94
2023-05-18T02:41:24.459Z,94
2023-05-18T02:42:31.541Z,94
2023-05-18T02:43:38.677Z,94
2023-05-18T02:45:52.445Z,94
2023-05-18T02:46:59.507Z,94
2023-05-18T02:48:06.639Z,94
2023-05-18T02:49:13.687Z,94
2023-05-18T02:50:20.760Z,94
2023-05-18T02:51:27.384Z,94
2023-05-18T02:52:34.465Z,94
2023-05-18T02:53:41.662Z,94
2023-05-18T02:54:48.660Z,94
2023-05-18T02:55:55.749Z,94
2023-05-18T02:57:02.377Z,94
2023-05-18T02:58:09.511Z,94
2023-05-18T02:59:16.649Z,94
2023-05-18T03:00:23.699Z,94
2023-05-18T03:01:30.813Z,93
2023-05-18T03:02:37.558Z,94
2023-05-18T03:03:44.588Z,93
2023-05-18T03:04:51.562Z,93
2023-05-18T03:05:58.690Z,93
2023-05-18T03:07:05.828Z,93
2023-05-18T03:08:12.404Z,94
2023-05-18T03:09:19.486Z,93
2023-05-18T03:10:26.612Z,93
2023-05-18T03:11:33.689Z,93
2023-05-18T03:12:40.307Z,93
2023-05-18T03:13:47.467Z,93
2023-05-18T03:14:54.503Z,93
2023-05-18T03:16:01.627Z,93
2023-05-18T03:17:08.896Z,93
2023-05-18T03:18:15.323Z,93
2023-05-18T03:19:22.541Z,93
2023-05-18T03:20:29.617Z,93
2023-05-18T03:21:36.623Z,93
2023-05-18T03:22:43.724Z,93
2023-05-18T03:23:50.301Z,93
2023-05-18T03:24:57.423Z,93
2023-05-18T03:26:04.506Z,93
2023-05-18T03:27:11.592Z,93
2023-05-18T03:28:18.757Z,93
2023-05-18T03:29:25.380Z,93
2023-05-18T03:30:32.417Z,93
2023-05-18T03:31:39.582Z,93
2023-05-18T03:32:46.650Z,93
2023-05-18T03:33:53.698Z,93
2023-05-18T03:35:00.319Z,93
2023-05-18T03:36:09.248Z,93
2023-05-18T03:37:14.576Z,93
2023-05-18T03:38:21.653Z,93
2023-05-18T03:39:28.763Z,93
2023-05-18T03:40:35.325Z,93
2023-05-18T03:41:42.558Z,93
2023-05-18T03:42:49.533Z,93
2023-05-18T03:43:56.698Z,93
2023-05-18T03:45:03.729Z,93
2023-05-18T03:46:10.360Z,93
2023-05-18T03:47:17.467Z,93
2023-05-18T03:49:31.656Z,93
2023-05-18T03:50:38.769Z,93
2023-05-18T03:51:45.394Z,93
2023-05-18T03:52:52.412Z,93
2023-05-18T03:53:59.585Z,93
2023-05-18T03:55:06.678Z,93
2023-05-18T03:56:13.742Z,93
2023-05-18T03:57:20.395Z,93
2023-05-18T03:58:27.519Z,93
2023-05-18T03:59:34.577Z,93
2023-05-18T04:00:41.680Z,93
2023-05-18T04:01:48.895Z,93
2023-05-18T04:04:02.575Z,93
2023-05-18T04:05:09.573Z,93
2023-05-18T04:06:16.690Z,93
2023-05-18T04:07:23.767Z,93
2023-05-18T04:08:30.481Z,93
2023-05-18T04:09:37.550Z,93
2023-05-18T04:10:44.588Z,93
2023-05-18T04:11:51.666Z,93
2023-05-18T04:12:58.808Z,93
2023-05-18T04:14:05.412Z,93
2023-05-18T04:15:12.437Z,93
2023-05-18T04:16:19.627Z,93
2023-05-18T04:17:26.745Z,93
2023-05-18T04:18:33.757Z,93
2023-05-18T04:19:40.356Z,93
2023-05-18T04:20:47.536Z,93
2023-05-18T04:21:54.614Z,93
2023-05-18T04:23:01.690Z,93
2023-05-18T04:24:08.876Z,93
2023-05-18T04:25:15.411Z,93
2023-05-18T04:26:22.495Z,93
2023-05-18T04:27:29.706Z,93
2023-05-18T04:28:36.713Z,93
2023-05-18T04:29:43.370Z,93
2023-05-18T04:30:50.445Z,93
2023-05-18T04:31:57.550Z,93
2023-05-18T04:33:04.633Z,93
2023-05-18T04:34:11.701Z,93
2023-05-18T04:35:18.316Z,93
2023-05-18T04:36:25.415Z,92
2023-05-18T04:37:32.484Z,92
2023-05-18T04:38:39.633Z,92
2023-05-18T04:39:46.768Z,92
2023-05-18T04:40:53.310Z,92
2023-05-18T04:42:00.432Z,92
2023-05-18T04:43:07.515Z,93
2023-05-18T04:44:14.628Z,92
2023-05-18T04:45:21.706Z,92
2023-05-18T04:46:28.433Z,92
2023-05-18T04:47:35.461Z,92
2023-05-18T04:48:42.519Z,92
2023-05-18T04:49:49.618Z,93
2023-05-18T04:50:56.749Z,93
2023-05-18T04:53:10.465Z,93
2023-05-18T04:54:17.569Z,92
2023-05-18T04:55:28.933Z,92
2023-05-18T04:56:31.767Z,92
2023-05-18T04:57:45.073Z,92
2023-05-18T04:58:45.442Z,92
2023-05-18T04:59:52.556Z,92
2023-05-18T05:00:59.694Z,92
2023-05-18T05:02:06.815Z,92
2023-05-18T05:03:13.381Z,92
2023-05-18T05:04:20.425Z,92
2023-05-18T05:05:27.806Z,92
2023-05-18T05:06:34.671Z,92
2023-05-18T05:07:41.784Z,92
2023-05-18T05:08:48.343Z,92
2023-05-18T05:09:55.496Z,92
2023-05-18T05:11:02.534Z,92
2023-05-18T05:12:09.683Z,92
2023-05-18T05:13:16.724Z,92
2023-05-18T05:14:23.352Z,92
2023-05-18T05:15:30.610Z,92
2023-05-18T05:16:37.571Z,92
2023-05-18T05:17:44.755Z,92
2023-05-18T05:18:51.775Z,92
2023-05-18T05:19:58.376Z,92
2023-05-18T05:21:05.481Z,92
2023-05-18T05:22:12.532Z,92
2023-05-18T05:23:19.707Z,92
2023-05-18T05:24:26.865Z,92
2023-05-18T05:25:33.411Z,92
2023-05-18T05:26:40.434Z,92
2023-05-18T05:27:47.587Z,92
2023-05-18T05:28:54.680Z,92
2023-05-18T05:30:01.966Z,92
2023-05-18T05:32:15.623Z,92
2023-05-18T05:33:22.574Z,92
2023-05-18T05:34:29.687Z,92
2023-05-18T05:35:37.160Z,92
2023-05-18T05:36:43.337Z,92
2023-05-18T05:37:50.467Z,92
2023-05-18T05:38:57.607Z,92
2023-05-18T05:40:04.682Z,92
2023-05-18T05:41:11.306Z,92
2023-05-18T05:42:18.376Z,92
2023-05-18T05:43:25.535Z,92
2023-05-18T05:44:32.648Z,92
2023-05-18T05:45:39.699Z,91
2023-05-18T05:46:46.368Z,91
2023-05-18T05:47:53.413Z,91
2023-05-18T05:49:00.495Z,91
2023-05-18T05:50:07.673Z,91
2023-05-18T05:51:14.705Z,91
2023-05-18T05:52:21.350Z,91
2023-05-18T05:53:28.434Z,91
2023-05-18T05:54:35.501Z,91
2023-05-18T05:56:49.712Z,91
2023-05-18T05:57:56.366Z,91
2023-05-18T05:59:03.377Z,91
2023-05-18T06:00:10.487Z,90
2023-05-18T06:01:17.649Z,90
2023-05-18T06:02:24.789Z,90
2023-05-18T06:03:34.375Z,91
2023-05-18T06:04:38.510Z,90
2023-05-18T06:05:45.574Z,90
2023-05-18T06:06:52.608Z,90
2023-05-18T06:07:59.770Z,90
2023-05-18T06:09:06.415Z,90
2023-05-18T06:10:13.406Z,90
2023-05-18T06:11:20.541Z,90
2023-05-18T06:12:27.607Z,90
2023-05-18T06:13:34.740Z,90
2023-05-18T06:14:41.298Z,90
2023-05-18T06:15:48.437Z,90
2023-05-18T06:16:55.652Z,90
2023-05-18T06:18:02.692Z,90
2023-05-18T06:19:09.877Z,90
2023-05-18T06:20:16.374Z,90
2023-05-18T06:21:23.403Z,90
2023-05-18T06:22:30.510Z,89
2023-05-18T06:23:39.540Z,89
2023-05-18T06:24:44.795Z,89
2023-05-18T06:25:51.334Z,89
2023-05-18T06:26:58.410Z,90
2023-05-18T06:28:05.574Z,89
2023-05-18T06:29:12.635Z,89
2023-05-18T06:30:19.766Z,89
2023-05-18T06:31:27.712Z,89
2023-05-18T06:32:33.471Z,89
2023-05-18T06:33:40.536Z,89
2023-05-18T06:34:47.713Z,89
2023-05-18T06:35:54.757Z,89
2023-05-18T06:37:01.356Z,89
2023-05-18T06:38:08.503Z,89
2023-05-18T06:39:15.628Z,89
2023-05-18T06:40:22.667Z,89
2023-05-18T06:41:29.836Z,89
2023-05-18T06:42:36.401Z,89
2023-05-18T06:43:43.432Z,89
2023-05-18T06:44:50.558Z,89
2023-05-18T06:45:57.737Z,89
2023-05-18T06:47:04.253Z,89
2023-05-18T06:48:11.461Z,89
2023-05-18T06:49:18.518Z,89
2023-05-18T06:50:25.597Z,89
2023-05-18T06:51:32.682Z,89
2023-05-18T06:52:39.333Z,89
2023-05-18T06:53:46.392Z,89
2023-05-18T06:54:53.448Z,89
2023-05-18T06:56:00.567Z,89
2023-05-18T06:57:07.725Z,89
2023-05-18T06:58:14.313Z,89
2023-05-18T07:00:28.492Z,88
2023-05-18T07:01:35.654Z,88
2023-05-18T07:02:42.774Z,88
2023-05-18T07:03:49.318Z,88
2023-05-18T07:04:56.451Z,88
2023-05-18T07:06:03.488Z,88
2023-05-18T07:07:10.593Z,88
2023-05-18T07:08:17.791Z,88
2023-05-18T07:09:24.304Z,88
2023-05-18T07:10:31.377Z,88
2023-05-18T07:11:38.542Z,88
2023-05-18T07:12:45.590Z,88
2023-05-18T07:13:52.755Z,88
2023-05-18T07:14:59.347Z,88
2023-05-18T07:16:09.316Z,88
2023-05-18T07:17:13.507Z,88
2023-05-18T07:18:20.621Z,88
2023-05-18T07:19:27.988Z,88
2023-05-18T07:20:34.343Z,88
2023-05-18T07:21:41.411Z,88
2023-05-18T07:22:48.551Z,88
2023-05-18T07:23:55.592Z,87
2023-05-18T07:25:02.199Z,87
2023-05-18T07:26:09.315Z,87
2023-05-18T07:27:16.429Z,87
2023-05-18T07:28:23.529Z,87
2023-05-18T07:29:30.682Z,87
2023-05-18T07:30:37.798Z,87
2023-05-18T07:31:44.376Z,87
2023-05-18T07:32:51.602Z,86
2023-05-18T07:33:58.550Z,86
2023-05-18T07:35:05.759Z,86
2023-05-18T07:36:12.736Z,86
2023-05-18T07:37:19.341Z,86
2023-05-18T07:38:26.454Z,86
2023-05-18T07:39:33.513Z,85
2023-05-18T07:40:40.632Z,85
2023-05-18T07:41:47.779Z,85
2023-05-18T07:42:54.326Z,85
2023-05-18T07:44:01.440Z,85
2023-05-18T07:45:08.628Z,85
2023-05-18T07:46:15.683Z,85
2023-05-18T07:47:22.768Z,85
2023-05-18T07:48:29.346Z,85
2023-05-18T07:49:36.417Z,84
2023-05-18T07:50:43.614Z,84
2023-05-18T07:51:50.652Z,84
2023-05-18T07:52:57.770Z,84
2023-05-18T07:54:04.339Z,84
2023-05-18T07:55:11.453Z,84
2023-05-18T07:56:18.586Z,84
2023-05-18T07:57:25.693Z,84
2023-05-18T07:58:32.799Z,84
2023-05-18T07:59:39.519Z,84
2023-05-18T08:00:46.519Z,84
2023-05-18T08:01:53.571Z,84
2023-05-18T08:04:07.430Z,84
2023-05-18T08:05:14.371Z,84
2023-05-18T08:06:21.549Z,83
2023-05-18T08:07:28.605Z,83
2023-05-18T08:08:35.675Z,83
2023-05-18T08:09:42.267Z,83
2023-05-18T08:10:49.703Z,83
2023-05-18T08:11:56.527Z,83
2023-05-18T08:13:03.592Z,83
2023-05-18T08:14:10.681Z,83
2023-05-18T08:15:17.333Z,83
2023-05-18T08:16:24.538Z,83
2023-05-18T08:17:31.515Z,83
2023-05-18T08:18:38.699Z,83
2023-05-18T08:19:45.735Z,83
2023-05-18T08:20:52.266Z,83
2023-05-18T08:21:59.398Z,83
2023-05-18T08:23:06.568Z,83
2023-05-18T08:24:13.598Z,83
2023-05-18T08:25:20.773Z,83
2023-05-18T08:26:27.348Z,83
2023-05-18T08:28:41.540Z,82
2023-05-18T08:29:48.677Z,83
2023-05-18T08:30:55.766Z,82
2023-05-18T08:32:02.338Z,83
2023-05-18T08:33:09.583Z,83
2023-05-18T08:34:16.523Z,82
2023-05-18T08:35:23.618Z,82
2023-05-18T08:36:30.713Z,82
2023-05-18T08:37:37.337Z,82
2023-05-18T08:38:44.385Z,82
2023-05-18T08:39:51.578Z,82
2023-05-18T08:40:58.641Z,82
2023-05-18T08:42:05.742Z,82
2023-05-18T08:43:12.324Z,82
2023-05-18T08:44:19.456Z,82
2023-05-18T08:45:26.536Z,82
2023-05-18T08:46:33.631Z,82
2023-05-18T08:47:40.493Z,82
2023-05-18T08:48:47.417Z,82
2023-05-18T08:49:54.421Z,82
2023-05-18T08:51:01.526Z,82
2023-05-18T08:52:08.647Z,82
2023-05-18T08:53:15.219Z,82
2023-05-18T08:54:22.341Z,82
2023-05-18T08:55:29.622Z,82
2023-05-18T08:56:36.541Z,82
2023-05-18T08:57:43.642Z,82
2023-05-18T08:58:50.264Z,82
2023-05-18T08:59:57.409Z,82
2023-05-18T09:01:04.469Z,82
2023-05-18T09:02:11.648Z,82
2023-05-18T09:03:18.676Z,82
2023-05-18T09:04:25.237Z,82
2023-05-18T09:05:32.982Z,82
2023-05-18T09:07:46.573Z,82
2023-05-18T09:08:53.681Z,82
2023-05-18T09:10:00.257Z,82
2023-05-18T09:11:07.380Z,82
2023-05-18T09:12:14.458Z,82
2023-05-18T09:13:21.579Z,82
2023-05-18T09:14:28.670Z,82
2023-05-18T09:15:35.353Z,82
2023-05-18T09:16:42.364Z,82
2023-05-18T09:17:49.626Z,82
2023-05-18T09:18:56.620Z,82
2023-05-18T09:20:03.678Z,82
2023-05-18T09:21:10.274Z,82
2023-05-18T09:22:17.406Z,82
2023-05-18T09:23:24.507Z,82
2023-05-18T09:24:31.558Z,82
2023-05-18T09:25:38.683Z,82
2023-05-18T09:26:45.290Z,82
2023-05-18T09:27:52.381Z,82
2023-05-18T09:28:59.636Z,82
2023-05-18T09:30:06.622Z,82
2023-05-18T09:31:13.766Z,82
2023-05-18T09:32:20.281Z,83
2023-05-18T09:33:27.524Z,82
2023-05-18T09:34:34.487Z,82
2023-05-18T09:35:41.579Z,82
2023-05-18T09:36:48.723Z,82
2023-05-18T09:37:55.283Z,82
2023-05-18T09:39:02.358Z,82
2023-05-18T09:40:09.584Z,82
2023-05-18T09:41:16.628Z,82
2023-05-18T09:42:24.347Z,82
2023-05-18T09:43:30.335Z,82
2023-05-18T09:44:37.476Z,82
2023-05-18T09:45:44.478Z,82
2023-05-18T09:46:51.626Z,82
2023-05-18T09:47:58.735Z,82
2023-05-18T09:49:05.300Z,81
2023-05-18T09:50:12.405Z,81
2023-05-18T09:51:19.564Z,81
2023-05-18T09:52:26.614Z,81
2023-05-18T09:53:33.167Z,81
2023-05-18T09:54:40.344Z,81
2023-05-18T09:57:08.941Z,81
2023-05-18T09:58:01.623Z,81
2023-05-18T09:59:08.186Z,81
2023-05-18T10:00:15.327Z,81
2023-05-18T10:01:22.484Z,81
2023-05-18T10:02:29.596Z,81
2023-05-18T10:03:36.660Z,81
2023-05-18T10:04:43.466Z,81
2023-05-18T10:05:50.371Z,81
2023-05-18T10:06:57.464Z,81
2023-05-18T10:08:04.549Z,81
2023-05-18T10:09:11.635Z,80
2023-05-18T10:11:25.367Z,81
2023-05-18T10:12:32.437Z,80
2023-05-18T10:13:39.592Z,80
2023-05-18T10:14:46.635Z,80
2023-05-18T10:15:53.222Z,80
2023-05-18T10:17:14.417Z,80
2023-05-18T10:18:07.486Z,80
2023-05-18T10:19:14.637Z,80
2023-05-18T10:20:21.642Z,80
2023-05-18T10:21:28.325Z,80
2023-05-18T10:22:35.377Z,80
2023-05-18T10:23:42.457Z,80
2023-05-18T10:24:49.636Z,80
2023-05-18T10:25:56.687Z,80
2023-05-18T10:27:03.252Z,80
2023-05-18T10:28:10.387Z,80
2023-05-18T10:29:17.472Z,80
2023-05-18T10:30:24.647Z,80
2023-05-18T10:31:31.728Z,80
2023-05-18T10:32:38.342Z,80
2023-05-18T10:33:45.420Z,80
2023-05-18T10:34:52.458Z,80
2023-05-18T10:35:59.621Z,80
2023-05-18T10:37:06.726Z,80
2023-05-18T10:38:13.287Z,80
2023-05-18T10:39:20.358Z,80
2023-05-18T10:40:27.529Z,80
2023-05-18T10:41:34.574Z,80
2023-05-18T10:42:41.705Z,80
2023-05-18T10:43:48.282Z,80
2023-05-18T10:44:55.411Z,80
2023-05-18T10:46:02.775Z,80
2023-05-18T10:47:09.657Z,80
2023-05-18T10:48:16.762Z,80
2023-05-18T10:49:23.293Z,80
2023-05-18T10:50:30.609Z,80
2023-05-18T10:51:37.483Z,80
2023-05-18T10:52:44.638Z,80
2023-05-18T10:53:51.615Z,80
2023-05-18T10:54:58.340Z,80
2023-05-18T10:56:05.390Z,80
2023-05-18T10:57:12.496Z,80
2023-05-18T10:58:19.620Z,80
2023-05-18T10:59:26.192Z,80
2023-05-18T11:00:33.474Z,80
2023-05-18T11:01:40.395Z,80
2023-05-18T11:02:47.565Z,80
2023-05-18T11:03:54.654Z,80
2023-05-18T11:05:01.234Z,80
2023-05-18T11:06:09.445Z,80
2023-05-18T11:07:15.408Z,80
2023-05-18T11:08:22.487Z,80
2023-05-18T11:09:29.666Z,81
2023-05-18T11:10:36.264Z,81
2023-05-18T11:11:43.324Z,81
2023-05-18T11:12:50.428Z,81
2023-05-18T11:15:04.659Z,80
2023-05-18T11:16:11.238Z,80
2023-05-18T11:17:18.368Z,80
2023-05-18T11:18:25.457Z,80
2023-05-18T11:19:32.512Z,80
2023-05-18T11:20:39.657Z,80
2023-05-18T11:21:46.229Z,81
2023-05-18T11:22:53.369Z,81
2023-05-18T11:25:07.616Z,81
2023-05-18T11:26:14.649Z,81
2023-05-18T11:27:21.224Z,81
2023-05-18T11:28:28.373Z,81
2023-05-18T11:29:35.442Z,81
2023-05-18T11:30:42.550Z,81
2023-05-18T11:31:49.692Z,81
2023-05-18T11:32:56.347Z,81
2023-05-18T11:34:03.379Z,81
2023-05-18T11:35:10.485Z,81
2023-05-18T11:36:17.571Z,81
2023-05-18T11:37:24.671Z,81
2023-05-18T11:38:31.261Z,81
2023-05-18T11:39:48.125Z,81
2023-05-18T11:40:45.461Z,81
2023-05-18T11:41:52.700Z,81
2023-05-18T11:42:59.704Z,81
2023-05-18T11:44:06.261Z,81
2023-05-18T11:45:13.375Z,81
2023-05-18T11:46:20.481Z,81
2023-05-18T11:47:27.653Z,81
2023-05-18T11:48:34.764Z,81
2023-05-18T11:49:41.248Z,81
2023-05-18T11:50:48.376Z,81
2023-05-18T11:51:57.210Z,81
2023-05-18T11:53:02.565Z,81
2023-05-18T11:54:09.208Z,81
2023-05-18T11:55:16.369Z,81
2023-05-18T11:56:23.356Z,81
2023-05-18T11:57:30.463Z,81
2023-05-18T11:58:37.620Z,81
2023-05-18T11:59:44.698Z,81
2023-05-18T12:00:51.317Z,81
2023-05-18T12:01:58.403Z,81
2023-05-18T12:03:05.638Z,81
2023-05-18T12:04:12.661Z,81
2023-05-18T12:05:19.196Z,81
2023-05-18T12:06:26.320Z,81
2023-05-18T12:07:33.498Z,81
2023-05-18T12:08:40.487Z,81
2023-05-18T12:09:47.590Z,81
2023-05-18T12:10:54.145Z,81
2023-05-18T12:12:01.258Z,81
2023-05-18T12:13:08.398Z,81
2023-05-18T12:14:15.518Z,81
2023-05-18T12:15:22.670Z,81
2023-05-18T12:16:29.244Z,81
2023-05-18T12:18:43.447Z,81
2023-05-18T12:19:50.499Z,81
2023-05-18T12:20:57.636Z,81
2023-05-18T12:22:04.190Z,81
2023-05-18T12:23:11.280Z,81
2023-05-18T12:24:18.401Z,81
2023-05-18T12:25:25.495Z,81
2023-05-18T12:26:32.618Z,81
2023-05-18T12:27:39.207Z,81
2023-05-18T12:28:46.338Z,81
2023-05-18T12:29:53.407Z,81
2023-05-18T12:31:01.311Z,81
2023-05-18T12:32:07.640Z,81
2023-05-18T12:33:14.238Z,82
2023-05-18T12:34:21.307Z,82
2023-05-18T12:35:28.444Z,82
2023-05-18T12:36:35.508Z,82
2023-05-18T12:38:49.249Z,82
2023-05-18T12:39:56.342Z,82
2023-05-18T12:41:03.450Z,82
2023-05-18T12:42:10.576Z,82
2023-05-18T12:43:17.731Z,82
2023-05-18T12:44:24.252Z,81
2023-05-18T12:45:31.783Z,81
2023-05-18T12:46:38.484Z,81
2023-05-18T12:47:45.696Z,81
2023-05-18T12:48:52.631Z,81
2023-05-18T12:49:59.347Z,81
2023-05-18T12:51:06.364Z,81
2023-05-18T12:53:20.558Z,81
2023-05-18T12:54:27.135Z,81
2023-05-18T12:55:34.567Z,81
2023-05-18T12:56:41.337Z,81
2023-05-18T12:57:48.466Z,81
2023-05-18T12:58:55.551Z,81
2023-05-18T13:00:02.145Z,81
2023-05-18T13:01:09.355Z,81
2023-05-18T13:02:16.345Z,81
2023-05-18T13:03:23.551Z,81
2023-05-18T13:04:30.607Z,81
2023-05-18T13:05:37.746Z,81
2023-05-18T13:06:44.248Z,81
2023-05-18T13:07:51.327Z,81
2023-05-18T13:08:58.535Z,81
2023-05-18T13:10:05.587Z,81
2023-05-18T13:11:14.968Z,81
2023-05-18T13:12:19.297Z,81
2023-05-18T13:13:26.513Z,81
2023-05-18T13:14:33.494Z,81
2023-05-18T13:15:40.566Z,81
2023-05-18T13:16:47.868Z,81
2023-05-18T13:17:54.316Z,81
2023-05-18T13:19:01.423Z,81
2023-05-18T13:20:08.606Z,82
2023-05-18T13:22:22.682Z,82
2023-05-18T13:23:29.342Z,82
2023-05-18T13:24:36.405Z,82
2023-05-18T13:25:43.519Z,82
2023-05-18T13:26:50.604Z,82
2023-05-18T13:27:57.148Z,82
2023-05-18T13:29:04.297Z,82
2023-05-18T13:30:11.424Z,82
2023-05-18T13:31:18.563Z,82
2023-05-18T13:32:25.632Z,82
2023-05-18T13:33:32.242Z,82
2023-05-18T13:34:39.352Z,82
2023-05-18T13:35:46.475Z,82
2023-05-18T13:36:53.490Z,83
2023-05-18T13:38:00.637Z,83
2023-05-18T13:39:07.292Z,83
2023-05-18T13:40:14.317Z,83
2023-05-18T13:41:21.431Z,83
2023-05-18T13:42:28.513Z,83
2023-05-18T13:43:35.680Z,83
2023-05-18T13:44:42.192Z,83
2023-05-18T13:45:49.378Z,83
2023-05-18T13:46:56.432Z,83
2023-05-18T13:48:03.568Z,83
2023-05-18T13:49:10.611Z,83
2023-05-18T13:50:17.359Z,83
2023-05-18T13:51:24.350Z,83
2023-05-18T13:52:31.434Z,83
2023-05-18T13:53:39.491Z,84
2023-05-18T13:54:45.665Z,84
2023-05-18T13:55:52.215Z,84
2023-05-18T13:56:59.328Z,84
2023-05-18T13:58:06.471Z,84
2023-05-18T13:59:13.518Z,85
2023-05-18T14:00:20.647Z,85
2023-05-18T14:01:27.285Z,85
2023-05-18T14:02:34.475Z,85
2023-05-18T14:03:41.472Z,85
2023-05-18T14:04:48.584Z,85
2023-05-18T14:05:55.719Z,86
2023-05-18T14:07:02.220Z,86
2023-05-18T14:08:09.384Z,86
2023-05-18T14:09:16.480Z,86
2023-05-18T14:10:23.568Z,86
2023-05-18T14:11:30.675Z,86
2023-05-18T14:12:37.262Z,86
2023-05-18T14:13:44.329Z,87
2023-05-18T14:14:51.469Z,87
2023-05-18T14:15:58.902Z,87
2023-05-18T14:17:05.683Z,87
2023-05-18T14:18:12.270Z,87
2023-05-18T14:19:19.457Z,87
2023-05-18T14:21:33.582Z,87
2023-05-18T14:22:40.706Z,87
2023-05-18T14:23:47.279Z,87
2023-05-18T14:26:01.447Z,88
2023-05-18T14:27:08.625Z,88
2023-05-18T14:28:15.149Z,88
2023-05-18T14:29:22.297Z,88
2023-05-18T14:30:29.579Z,88
2023-05-18T14:31:36.489Z,88
2023-05-18T14:32:43.668Z,88
2023-05-18T14:33:50.202Z,88
2023-05-18T14:34:57.365Z,89
2023-05-18T14:36:04.585Z,88
2023-05-18T14:37:11.482Z,89
2023-05-18T14:38:18.582Z,89
2023-05-18T14:39:25.201Z,89
2023-05-18T14:40:32.454Z,89
2023-05-18T14:41:39.397Z,89
2023-05-18T14:42:46.551Z,90
2023-05-18T14:43:53.583Z,89
2023-05-18T14:45:00.229Z,90
2023-05-18T14:46:09.543Z,90
2023-05-18T14:47:14.428Z,90
2023-05-18T14:48:21.540Z,90
2023-05-18T14:49:28.608Z,90
2023-05-18T14:50:38.356Z,90
2023-05-18T14:51:42.313Z,90
2023-05-18T14:52:49.412Z,91
2023-05-18T14:53:56.546Z,91
2023-05-18T14:55:03.605Z,91
2023-05-18T14:56:10.235Z,91
2023-05-18T14:57:17.340Z,91
2023-05-18T14:58:24.388Z,91
2023-05-18T14:59:31.588Z,91
2023-05-18T15:00:38.654Z,91
2023-05-18T15:01:45.261Z,91
2023-05-18T15:02:52.330Z,91
2023-05-18T15:03:59.490Z,91
2023-05-18T15:05:06.618Z,91
2023-05-18T15:06:13.673Z,91
2023-05-18T15:07:20.245Z,91
2023-05-18T15:08:27.340Z,91
2023-05-18T15:09:34.413Z,91
2023-05-18T15:10:41.528Z,91
2023-05-18T15:11:48.683Z,91
2023-05-18T15:12:55.272Z,91
2023-05-18T15:14:02.335Z,91
2023-05-18T15:15:09.440Z,91
2023-05-18T15:16:16.598Z,91
2023-05-18T15:17:23.631Z,91
2023-05-18T15:18:30.259Z,91
2023-05-18T15:19:37.338Z,91
2023-05-18T15:20:44.464Z,91
2023-05-18T15:21:51.536Z,91
2023-05-18T15:22:58.667Z,91
2023-05-18T15:24:05.262Z,91
2023-05-18T15:25:12.347Z,91
2023-05-18T15:26:19.464Z,92
2023-05-18T15:27:26.643Z,92
2023-05-18T15:29:40.280Z,92
2023-05-18T15:30:47.340Z,91
2023-05-18T15:31:54.503Z,91
2023-05-18T15:33:01.564Z,91
2023-05-18T15:34:08.183Z,91
2023-05-18T15:35:15.296Z,91
2023-05-18T15:36:22.474Z,91
2023-05-18T15:37:29.464Z,91
2023-05-18T15:38:36.643Z,91
2023-05-18T15:39:43.145Z,91
2023-05-18T15:40:50.252Z,91
2023-05-18T15:41:57.402Z,91
2023-05-18T15:43:04.433Z,91
2023-05-18T15:44:11.589Z,91
2023-05-18T15:45:18.172Z,91
2023-05-18T15:46:25.431Z,91
2023-05-18T15:47:32.395Z,91
2023-05-18T15:49:46.592Z,91
2023-05-18T15:50:53.232Z,91
2023-05-18T15:52:00.286Z,91
2023-05-18T15:53:07.408Z,91
2023-05-18T15:54:14.451Z,91
2023-05-18T15:55:21.586Z,91
2023-05-18T15:56:28.233Z,91
2023-05-18T15:57:35.337Z,91
2023-05-18T15:58:42.355Z,91
2023-05-18T15:59:49.499Z,91
2023-05-18T16:00:56.682Z,91
2023-05-18T16:02:03.214Z,91
2023-05-18T16:03:10.349Z,91
2023-05-18T16:04:17.426Z,91
2023-05-18T16:05:24.509Z,91
2023-05-18T16:06:31.669Z,91
2023-05-18T16:07:38.256Z,91
2023-05-18T16:08:45.337Z,91
2023-05-18T16:09:52.426Z,91
2023-05-18T16:10:59.515Z,91
2023-05-18T16:12:06.636Z,91
2023-05-18T16:13:13.303Z,92
2023-05-18T16:14:20.316Z,91
2023-05-18T16:15:27.469Z,92
2023-05-18T16:16:34.531Z,92
2023-05-18T16:17:41.673Z,92
2023-05-18T16:18:48.229Z,92
2023-05-18T16:19:55.336Z,91
2023-05-18T16:21:02.488Z,91